Time;durP1;ratioP1;P1;durP2;ratioP2;P2;SDS_P1;SDS_P2;PMS_P1;PMS_P2;Temp;Humidity;BMP_temperature;BMP_pressure;BME280_temperature;BME280_humidity;BME280_pressure;Samples;Min_cycle;Max_cycle;Signal;HPM_P1;HPM_P2
2024/01/15 00:00:26;;;;;;;9.20;6.00;;;;;;;;;;6225484;23;20955;-94
2024/01/15 00:02:52;;;;;;;8.30;4.27;;;;;;;;;;6226006;22;20409;-93
2024/01/15 00:05:18;;;;;;;9.77;5.60;;;;;;;;;;6228758;23;20379;-93
2024/01/15 00:07:44;;;;;;;8.07;4.67;;;;;;;;;;6226238;23;20413;-93
2024/01/15 00:10:10;;;;;;;9.57;5.53;;;;;;;;;;6226771;23;20531;-92
2024/01/15 00:12:36;;;;;;;13.40;6.80;;;;;;;;;;6225317;23;20492;-93
2024/01/15 00:15:02;;;;;;;8.50;4.40;;;;;;;;;;6228209;22;20397;-93
2024/01/15 00:17:31;;;;;;;9.10;4.60;;;;;;;;;;6227001;23;20385;-93
2024/01/15 00:20:00;;;;;;;11.13;5.53;;;;;;;;;;6226899;22;20405;-93
2024/01/15 00:22:29;;;;;;;5.67;3.50;;;;;;;;;;6226985;22;20386;-93
2024/01/15 00:24:55;;;;;;;4.63;3.73;;;;;;;;;;6226818;23;20447;-93
2024/01/15 00:27:21;;;;;;;11.43;4.90;;;;;;;;;;6226592;22;20390;-93
2024/01/15 00:29:50;;;;;;;8.43;5.23;;;;;;;;;;6229623;23;20386;-93
2024/01/15 00:32:19;;;;;;;6.40;4.20;;;;;;;;;;6225594;22;20382;-92
2024/01/15 00:34:48;;;;;;;7.83;4.40;;;;;;;;;;6227535;23;20823;-92
2024/01/15 00:37:14;;;;;;;8.60;5.30;;;;;;;;;;6224769;23;20396;-93
2024/01/15 00:39:40;;;;;;;9.23;5.23;;;;;;;;;;6228098;22;20422;-93
2024/01/15 00:42:06;;;;;;;5.33;4.63;;;;;;;;;;6225833;23;20386;-92
2024/01/15 00:44:32;;;;;;;11.60;4.20;;;;;;;;;;6226374;22;20402;-94
2024/01/15 00:46:58;;;;;;;7.33;5.13;;;;;;;;;;6227181;22;20401;-94
2024/01/15 00:49:24;;;;;;;12.23;5.90;;;;;;;;;;6230202;23;20385;-95
2024/01/15 00:51:50;;;;;;;9.10;4.50;;;;;;;;;;6252403;22;20374;-94
2024/01/15 00:54:17;;;;;;;7.47;5.10;;;;;;;;;;6226616;23;20377;-93
2024/01/15 00:56:43;;;;;;;8.70;4.73;;;;;;;;;;6225559;23;20394;-94
2024/01/15 00:59:10;;;;;;;20.47;8.27;;;;;;;;;;6229348;23;20398;-93
2024/01/15 01:04:12;;;;;;;8.20;5.23;;;;;;;;;;6284344;22;20416;-94
2024/01/15 01:06:38;;;;;;;13.97;6.13;;;;;;;;;;6254420;22;20385;-93
2024/01/15 01:09:04;;;;;;;10.87;5.10;;;;;;;;;;6257054;22;20508;-94
2024/01/15 01:11:30;;;;;;;12.53;4.57;;;;;;;;;;6280781;22;20387;-94
2024/01/15 01:13:58;;;;;;;15.30;4.40;;;;;;;;;;6258282;22;20447;-93
2024/01/15 01:16:24;;;;;;;9.30;5.53;;;;;;;;;;6258210;22;20388;-93
2024/01/15 01:18:50;;;;;;;13.23;4.33;;;;;;;;;;6258838;22;20933;-93
2024/01/15 01:21:18;;;;;;;9.90;4.00;;;;;;;;;;6258624;22;20448;-93
2024/01/15 01:23:44;;;;;;;6.57;4.37;;;;;;;;;;6258954;22;20727;-93
2024/01/15 01:26:10;;;;;;;5.83;3.73;;;;;;;;;;6259447;22;20916;-92
2024/01/15 01:28:37;;;;;;;9.90;3.53;;;;;;;;;;6257436;22;20391;-94
2024/01/15 01:31:03;;;;;;;13.37;6.30;;;;;;;;;;6257746;22;20377;-92
2024/01/15 01:33:29;;;;;;;11.57;4.03;;;;;;;;;;6257756;22;20476;-93
2024/01/15 01:35:55;;;;;;;10.83;4.73;;;;;;;;;;6260388;22;20479;-92
2024/01/15 01:38:21;;;;;;;9.90;4.17;;;;;;;;;;6254714;22;20385;-93
2024/01/15 01:40:47;;;;;;;6.07;3.80;;;;;;;;;;6256821;22;20441;-92
2024/01/15 01:43:13;;;;;;;10.63;4.97;;;;;;;;;;6254495;22;20381;-93
2024/01/15 01:45:39;;;;;;;11.23;6.13;;;;;;;;;;6260801;22;20374;-92
2024/01/15 01:48:05;;;;;;;7.63;5.00;;;;;;;;;;6256079;22;20873;-92
2024/01/15 01:50:31;;;;;;;6.37;4.10;;;;;;;;;;6258807;22;20456;-94
2024/01/15 01:52:57;;;;;;;10.77;4.40;;;;;;;;;;6254856;22;20398;-93
2024/01/15 01:55:24;;;;;;;4.87;3.77;;;;;;;;;;6257695;22;20400;-94
2024/01/15 01:57:50;;;;;;;11.37;4.67;;;;;;;;;;6256218;22;20417;-93
2024/01/15 02:00:16;;;;;;;8.63;3.20;;;;;;;;;;6254373;22;20421;-93
2024/01/15 02:02:42;;;;;;;7.70;3.43;;;;;;;;;;6257974;22;20398;-94
2024/01/15 02:05:08;;;;;;;7.10;5.57;;;;;;;;;;6261903;22;20948;-95
2024/01/15 02:07:35;;;;;;;14.97;7.70;;;;;;;;;;6257920;22;20442;-93
2024/01/15 02:10:01;;;;;;;5.93;5.23;;;;;;;;;;6257577;22;20725;-92
2024/01/15 02:12:27;;;;;;;9.33;3.40;;;;;;;;;;6258254;22;20398;-92
2024/01/15 02:14:53;;;;;;;10.87;6.20;;;;;;;;;;6259485;22;20454;-93
2024/01/15 02:17:19;;;;;;;9.33;4.50;;;;;;;;;;6258073;22;20421;-95
2024/01/15 02:19:45;;;;;;;7.97;4.37;;;;;;;;;;6258106;22;20433;-92
2024/01/15 02:22:11;;;;;;;10.40;5.00;;;;;;;;;;6283924;22;20373;-95
2024/01/15 02:24:37;;;;;;;11.60;6.00;;;;;;;;;;6255687;22;20388;-93
2024/01/15 02:27:03;;;;;;;7.83;4.73;;;;;;;;;;6258238;22;20388;-94
2024/01/15 02:29:29;;;;;;;12.40;3.90;;;;;;;;;;6255370;22;20433;-95
2024/01/15 02:31:55;;;;;;;9.43;5.10;;;;;;;;;;6256216;22;20441;-92
2024/01/15 02:34:21;;;;;;;7.57;5.40;;;;;;;;;;6255846;22;20392;-92
2024/01/15 02:36:47;;;;;;;9.30;4.87;;;;;;;;;;6255031;22;20456;-92
2024/01/15 02:39:14;;;;;;;8.20;4.93;;;;;;;;;;6255941;22;20424;-93
2024/01/15 02:41:40;;;;;;;3.80;3.47;;;;;;;;;;6219777;23;20383;-93
2024/01/15 02:44:06;;;;;;;10.53;5.57;;;;;;;;;;6193997;23;20401;-92
2024/01/15 02:46:31;;;;;;;10.73;4.87;;;;;;;;;;6195152;23;20382;-93
2024/01/15 02:48:57;;;;;;;10.37;4.17;;;;;;;;;;6192325;23;20938;-92
2024/01/15 02:51:23;;;;;;;5.07;3.53;;;;;;;;;;6193584;23;20436;-92
2024/01/15 02:53:50;;;;;;;4.87;3.83;;;;;;;;;;6192916;23;20383;-92
2024/01/15 02:56:16;;;;;;;13.83;6.70;;;;;;;;;;6192134;23;21025;-92
2024/01/15 02:58:42;;;;;;;7.70;4.00;;;;;;;;;;6195789;23;20384;-92
2024/01/15 03:01:08;;;;;;;8.03;4.83;;;;;;;;;;6192268;23;20739;-92
2024/01/15 03:03:34;;;;;;;12.50;2.80;;;;;;;;;;6193594;23;20542;-92
2024/01/15 03:06:00;;;;;;;7.27;4.10;;;;;;;;;;6222492;23;20495;-92
2024/01/15 03:08:26;;;;;;;8.80;3.97;;;;;;;;;;6224340;23;20378;-93
2024/01/15 03:10:52;;;;;;;5.80;3.93;;;;;;;;;;6225517;23;20370;-93
2024/01/15 03:13:19;;;;;;;7.57;4.63;;;;;;;;;;6272614;22;20377;-93
2024/01/15 03:15:45;;;;;;;13.77;4.47;;;;;;;;;;6256393;22;20372;-92
2024/01/15 03:18:11;;;;;;;8.93;4.07;;;;;;;;;;6257628;22;20362;-93
2024/01/15 03:20:37;;;;;;;8.53;3.33;;;;;;;;;;6256237;22;20413;-92
2024/01/15 03:23:03;;;;;;;8.03;2.80;;;;;;;;;;6258347;22;20488;-93
2024/01/15 03:25:29;;;;;;;10.53;4.47;;;;;;;;;;6255705;22;20377;-92
2024/01/15 03:27:55;;;;;;;6.70;5.37;;;;;;;;;;6255501;22;20381;-94
2024/01/15 03:30:21;;;;;;;10.37;5.10;;;;;;;;;;6255797;22;20389;-93
2024/01/15 03:32:47;;;;;;;9.20;5.63;;;;;;;;;;6280084;22;20365;-94
2024/01/15 03:35:13;;;;;;;6.33;4.13;;;;;;;;;;6258143;22;20382;-93
2024/01/15 03:37:39;;;;;;;11.60;4.60;;;;;;;;;;6256484;22;20377;-93
2024/01/15 03:40:05;;;;;;;9.60;4.83;;;;;;;;;;6257014;22;20447;-93
2024/01/15 03:42:31;;;;;;;16.20;5.70;;;;;;;;;;6258241;22;20384;-94
2024/01/15 03:44:57;;;;;;;9.17;5.07;;;;;;;;;;6264725;22;20492;-92
2024/01/15 03:47:23;;;;;;;8.80;4.30;;;;;;;;;;6258384;22;20422;-93
2024/01/15 03:49:49;;;;;;;9.50;7.30;;;;;;;;;;6262481;22;20397;-93
2024/01/15 03:52:15;;;;;;;11.17;4.17;;;;;;;;;;6258306;22;20388;-93
2024/01/15 03:54:41;;;;;;;8.67;4.27;;;;;;;;;;6259775;22;20380;-93
2024/01/15 03:57:07;;;;;;;12.13;6.80;;;;;;;;;;6258113;22;20380;-93
2024/01/15 03:59:33;;;;;;;9.13;3.57;;;;;;;;;;6259068;22;20413;-94
2024/01/15 04:01:59;;;;;;;9.63;3.90;;;;;;;;;;6259623;22;20407;-93
2024/01/15 04:04:25;;;;;;;6.60;4.60;;;;;;;;;;6260040;22;20401;-92
2024/01/15 04:06:51;;;;;;;8.03;2.90;;;;;;;;;;6257331;22;20377;-93
2024/01/15 04:09:18;;;;;;;11.97;4.10;;;;;;;;;;6258034;22;20398;-94
2024/01/15 04:11:44;;;;;;;6.80;4.90;;;;;;;;;;6258508;22;20401;-93
2024/01/15 04:14:10;;;;;;;4.23;2.90;;;;;;;;;;6262637;22;20419;-93
2024/01/15 04:16:37;;;;;;;5.03;4.10;;;;;;;;;;6257339;22;20373;-93
2024/01/15 04:19:06;;;;;;;4.27;2.70;;;;;;;;;;6261546;22;20401;-92
2024/01/15 04:21:32;;;;;;;5.73;3.50;;;;;;;;;;6258417;22;20869;-92
2024/01/15 04:23:58;;;;;;;3.33;3.10;;;;;;;;;;6288279;22;20404;-92
2024/01/15 04:26:24;;;;;;;3.83;3.23;;;;;;;;;;6258660;22;20376;-93
2024/01/15 04:28:50;;;;;;;7.60;4.73;;;;;;;;;;6259485;22;20849;-93
2024/01/15 04:31:26;;;;;;;5.03;3.60;;;;;;;;;;6256375;22;20381;-93
2024/01/15 04:33:57;;;;;;;4.80;3.60;;;;;;;;;;6285536;22;20678;-94
2024/01/15 04:36:23;;;;;;;14.90;5.30;;;;;;;;;;6259603;22;20404;-93
2024/01/15 04:38:49;;;;;;;5.47;4.07;;;;;;;;;;6258735;22;20385;-93
2024/01/15 04:41:15;;;;;;;3.73;2.83;;;;;;;;;;6256943;22;20967;-93
2024/01/15 04:43:41;;;;;;;8.00;4.50;;;;;;;;;;6260524;22;20429;-91
2024/01/15 04:48:43;;;;;;;8.20;4.03;;;;;;;;;;6208686;23;20403;-92
2024/01/15 04:51:09;;;;;;;12.37;4.57;;;;;;;;;;6183361;23;20384;-93
2024/01/15 04:53:35;;;;;;;5.60;3.00;;;;;;;;;;6182118;23;20380;-92
2024/01/15 04:56:04;;;;;;;4.60;3.47;;;;;;;;;;6181332;23;20360;-92
2024/01/15 04:58:30;;;;;;;12.63;4.83;;;;;;;;;;6183151;23;20419;-92
2024/01/15 05:00:56;;;;;;;13.10;3.77;;;;;;;;;;6182938;23;20430;-92
2024/01/15 05:03:22;;;;;;;5.27;3.60;;;;;;;;;;6184779;23;20380;-92
2024/01/15 05:05:48;;;;;;;8.40;5.27;;;;;;;;;;6183812;23;20368;-93
2024/01/15 05:08:14;;;;;;;6.97;4.17;;;;;;;;;;6184980;23;20421;-92
2024/01/15 05:10:40;;;;;;;6.47;4.63;;;;;;;;;;6183612;23;20376;-93
2024/01/15 05:13:06;;;;;;;6.40;4.77;;;;;;;;;;6183748;23;20387;-93
2024/01/15 05:15:32;;;;;;;8.13;3.70;;;;;;;;;;6182585;23;20377;-93
2024/01/15 05:17:58;;;;;;;6.43;3.70;;;;;;;;;;6184525;23;20419;-92
2024/01/15 05:20:24;;;;;;;9.67;5.37;;;;;;;;;;6184041;23;20435;-92
2024/01/15 05:22:50;;;;;;;5.97;4.07;;;;;;;;;;6185479;23;20389;-92
2024/01/15 05:25:16;;;;;;;5.50;4.23;;;;;;;;;;6184696;23;20384;-92
2024/01/15 05:27:42;;;;;;;5.57;4.23;;;;;;;;;;6184189;23;20380;-92
2024/01/15 05:30:08;;;;;;;4.23;2.80;;;;;;;;;;6183866;23;20500;-91
2024/01/15 05:32:34;;;;;;;4.30;3.90;;;;;;;;;;6184231;23;20438;-92
2024/01/15 05:35:00;;;;;;;5.97;3.00;;;;;;;;;;6184912;23;20435;-92
2024/01/15 05:37:26;;;;;;;4.30;2.30;;;;;;;;;;6183522;23;20388;-92
2024/01/15 05:39:52;;;;;;;8.63;3.40;;;;;;;;;;6181013;23;20434;-92
2024/01/15 05:42:18;;;;;;;7.57;3.57;;;;;;;;;;6175768;23;20376;-92
2024/01/15 05:44:44;;;;;;;4.77;2.83;;;;;;;;;;6170064;23;20376;-92
2024/01/15 05:47:10;;;;;;;6.27;4.13;;;;;;;;;;6165778;23;20376;-89
2024/01/15 05:49:36;;;;;;;8.40;5.77;;;;;;;;;;6191757;23;20684;-93
2024/01/15 05:52:02;;;;;;;5.00;3.37;;;;;;;;;;6167445;23;20455;-93
2024/01/15 05:54:28;;;;;;;5.10;3.23;;;;;;;;;;6170970;23;20368;-91
2024/01/15 05:56:54;;;;;;;9.23;3.43;;;;;;;;;;6169430;23;20487;-90
2024/01/15 05:59:20;;;;;;;3.87;2.90;;;;;;;;;;6172217;23;20432;-93
2024/01/15 06:01:46;;;;;;;9.90;3.53;;;;;;;;;;6168116;23;20380;-91
2024/01/15 06:04:12;;;;;;;10.30;5.33;;;;;;;;;;6170538;23;20391;-93
2024/01/15 06:06:38;;;;;;;7.33;4.50;;;;;;;;;;6170126;23;20380;-92
2024/01/15 06:09:06;;;;;;;7.20;3.80;;;;;;;;;;6170857;23;20388;-92
2024/01/15 06:11:32;;;;;;;8.90;3.57;;;;;;;;;;6169088;23;21077;-90
2024/01/15 06:14:00;;;;;;;11.77;3.17;;;;;;;;;;6167684;23;20868;-90
2024/01/15 06:16:26;;;;;;;6.20;3.93;;;;;;;;;;6167611;23;20388;-90
2024/01/15 06:18:52;;;;;;;9.83;5.13;;;;;;;;;;6169321;23;20383;-90
2024/01/15 06:21:18;;;;;;;5.80;4.33;;;;;;;;;;6167607;23;20875;-91
2024/01/15 06:23:44;;;;;;;7.30;3.40;;;;;;;;;;6167984;23;20368;-91
2024/01/15 06:26:12;;;;;;;6.63;4.00;;;;;;;;;;6165229;23;20372;-88
2024/01/15 06:28:38;;;;;;;11.40;3.80;;;;;;;;;;6165645;23;20406;-90
2024/01/15 06:31:05;;;;;;;7.70;5.03;;;;;;;;;;6166052;23;20424;-91
2024/01/15 06:33:31;;;;;;;8.73;5.87;;;;;;;;;;6164762;23;20389;-89
2024/01/15 06:35:57;;;;;;;9.20;4.93;;;;;;;;;;6162341;23;20384;-90
2024/01/15 06:38:25;;;;;;;5.80;3.67;;;;;;;;;;6163064;23;20384;-90
2024/01/15 06:40:52;;;;;;;8.27;5.17;;;;;;;;;;6163333;23;20544;-90
2024/01/15 06:43:18;;;;;;;8.10;3.57;;;;;;;;;;6164224;23;20380;-90
2024/01/15 06:45:44;;;;;;;7.47;4.30;;;;;;;;;;6169431;23;20520;-91
2024/01/15 06:48:13;;;;;;;8.47;3.70;;;;;;;;;;6163989;23;20823;-90
2024/01/15 06:50:40;;;;;;;6.80;3.63;;;;;;;;;;6192270;23;20387;-91
2024/01/15 06:53:06;;;;;;;7.60;4.40;;;;;;;;;;6165293;23;20378;-91
2024/01/15 06:55:32;;;;;;;6.97;4.37;;;;;;;;;;6169121;23;20368;-91
2024/01/15 06:57:58;;;;;;;5.83;4.57;;;;;;;;;;6169581;23;20380;-91
2024/01/15 07:00:24;;;;;;;6.37;4.50;;;;;;;;;;6167796;23;20438;-91
2024/01/15 07:02:50;;;;;;;6.33;3.60;;;;;;;;;;6162348;23;20388;-90
2024/01/15 07:05:16;;;;;;;8.73;4.37;;;;;;;;;;6164005;23;20594;-90
2024/01/15 07:07:42;;;;;;;8.70;4.60;;;;;;;;;;6165741;23;20707;-90
2024/01/15 07:10:08;;;;;;;6.30;3.80;;;;;;;;;;6162181;23;20404;-90
2024/01/15 07:12:36;;;;;;;6.03;4.13;;;;;;;;;;6164395;23;20387;-89
2024/01/15 07:15:02;;;;;;;7.57;4.33;;;;;;;;;;6161295;23;20380;-89
2024/01/15 07:17:28;;;;;;;5.80;3.70;;;;;;;;;;6187919;23;20714;-89
2024/01/15 07:19:54;;;;;;;7.60;4.40;;;;;;;;;;6166593;23;21082;-90
2024/01/15 07:22:20;;;;;;;7.60;3.70;;;;;;;;;;6163530;23;20379;-91
2024/01/15 07:24:46;;;;;;;7.93;4.13;;;;;;;;;;6164752;23;20391;-90
2024/01/15 07:27:13;;;;;;;7.50;3.10;;;;;;;;;;6189770;23;20371;-90
2024/01/15 07:29:39;;;;;;;8.77;5.37;;;;;;;;;;6171431;23;20380;-87
2024/01/15 07:32:07;;;;;;;7.43;2.73;;;;;;;;;;6171222;23;20384;-89
2024/01/15 07:34:33;;;;;;;3.90;3.00;;;;;;;;;;6170591;23;20434;-91
2024/01/15 07:36:59;;;;;;;4.97;4.00;;;;;;;;;;6167227;23;20376;-90
2024/01/15 07:39:25;;;;;;;5.57;3.80;;;;;;;;;;6168448;23;20427;-91
2024/01/15 07:41:53;;;;;;;4.87;3.00;;;;;;;;;;6173477;23;20376;-92
2024/01/15 07:44:19;;;;;;;5.17;3.93;;;;;;;;;;6169737;23;20383;-91
2024/01/15 07:46:45;;;;;;;5.27;2.70;;;;;;;;;;6197959;23;20673;-90
2024/01/15 07:49:12;;;;;;;5.40;3.60;;;;;;;;;;6170581;23;20454;-91
2024/01/15 07:51:40;;;;;;;9.90;5.47;;;;;;;;;;6169762;23;20382;-92
2024/01/15 07:54:09;;;;;;;8.87;4.27;;;;;;;;;;6174034;23;20162;-90
2024/01/15 07:56:35;;;;;;;7.33;3.00;;;;;;;;;;6176390;23;20391;-93
2024/01/15 07:59:01;;;;;;;5.57;4.10;;;;;;;;;;6197111;23;20451;-92
2024/01/15 08:01:27;;;;;;;7.20;4.40;;;;;;;;;;6174258;23;20951;-93
2024/01/15 08:03:55;;;;;;;7.03;3.90;;;;;;;;;;6169818;23;20391;-92
2024/01/15 08:06:29;;;;;;;4.07;3.40;;;;;;;;;;6171595;23;20513;-91
2024/01/15 08:08:56;;;;;;;5.90;4.07;;;;;;;;;;6170565;23;20378;-91
2024/01/15 08:11:22;;;;;;;6.40;4.53;;;;;;;;;;6171590;23;20379;-89
2024/01/15 08:13:48;;;;;;;5.23;3.87;;;;;;;;;;6168092;23;20452;-93
2024/01/15 08:16:14;;;;;;;7.77;4.87;;;;;;;;;;6168515;23;20434;-93
2024/01/15 08:18:44;;;;;;;9.50;5.20;;;;;;;;;;6167208;23;20387;-91
2024/01/15 08:21:10;;;;;;;8.63;3.60;;;;;;;;;;6168547;23;20384;-93
2024/01/15 08:23:36;;;;;;;5.93;4.07;;;;;;;;;;6168176;23;20391;-93
2024/01/15 08:26:02;;;;;;;5.90;4.53;;;;;;;;;;6170140;23;20388;-94
2024/01/15 08:28:28;;;;;;;10.80;6.23;;;;;;;;;;6167829;23;20431;-92
2024/01/15 08:30:54;;;;;;;4.57;3.87;;;;;;;;;;6170043;23;20384;-94
2024/01/15 08:33:20;;;;;;;8.33;4.33;;;;;;;;;;6164811;23;21178;-93
2024/01/15 08:35:46;;;;;;;6.83;4.10;;;;;;;;;;6171631;23;20384;-91
2024/01/15 08:38:12;;;;;;;7.53;3.67;;;;;;;;;;6165165;23;20396;-93
2024/01/15 08:40:38;;;;;;;6.03;3.17;;;;;;;;;;6168642;23;20455;-93
2024/01/15 08:43:06;;;;;;;5.20;4.00;;;;;;;;;;6166236;23;20391;-92
2024/01/15 08:45:32;;;;;;;5.17;3.03;;;;;;;;;;6167640;23;20414;-91
2024/01/15 08:47:58;;;;;;;7.87;3.67;;;;;;;;;;6167838;23;20451;-91
2024/01/15 08:50:24;;;;;;;5.13;3.37;;;;;;;;;;6173082;23;20411;-92
2024/01/15 08:52:52;;;;;;;5.07;3.40;;;;;;;;;;6167145;23;20376;-90
2024/01/15 08:55:18;;;;;;;4.37;3.40;;;;;;;;;;6168865;23;20384;-91
2024/01/15 08:57:44;;;;;;;4.07;3.60;;;;;;;;;;6169232;23;20388;-94
2024/01/15 09:00:11;;;;;;;10.20;3.17;;;;;;;;;;6171016;23;20423;-91
2024/01/15 09:02:37;;;;;;;5.23;2.27;;;;;;;;;;6168094;23;20380;-92
2024/01/15 09:05:04;;;;;;;5.37;3.77;;;;;;;;;;6173592;23;20388;-93
2024/01/15 09:07:31;;;;;;;5.30;3.03;;;;;;;;;;6194022;23;20448;-93
2024/01/15 09:09:59;;;;;;;4.33;3.20;;;;;;;;;;6172483;23;20394;-91
2024/01/15 09:12:26;;;;;;;7.10;4.37;;;;;;;;;;6196707;23;20376;-92
2024/01/15 09:14:53;;;;;;;6.50;2.33;;;;;;;;;;6170831;23;20400;-92
2024/01/15 09:17:23;;;;;;;5.00;3.77;;;;;;;;;;6172054;23;20423;-93
2024/01/15 09:19:49;;;;;;;6.93;2.43;;;;;;;;;;6173627;23;20514;-93
2024/01/15 09:22:18;;;;;;;3.50;3.20;;;;;;;;;;6175298;23;20392;-93
2024/01/15 09:24:44;;;;;;;3.13;1.97;;;;;;;;;;6171516;23;20388;-94
2024/01/15 09:27:10;;;;;;;6.73;2.40;;;;;;;;;;6171012;23;20458;-93
2024/01/15 09:29:41;;;;;;;4.97;2.40;;;;;;;;;;6169966;23;20384;-92
2024/01/15 09:32:08;;;;;;;6.30;3.30;;;;;;;;;;6197356;23;20447;-93
2024/01/15 09:34:35;;;;;;;2.97;2.60;;;;;;;;;;6170217;23;20387;-93
2024/01/15 09:37:01;;;;;;;5.73;2.57;;;;;;;;;;6172323;23;20384;-93
2024/01/15 09:39:27;;;;;;;5.40;2.73;;;;;;;;;;6169265;23;20438;-93
2024/01/15 09:41:57;;;;;;;3.57;2.80;;;;;;;;;;6171939;23;21062;-93
2024/01/15 09:44:23;;;;;;;2.63;2.43;;;;;;;;;;6171023;23;20390;-93
2024/01/15 09:46:50;;;;;;;6.17;2.70;;;;;;;;;;6171875;23;20368;-93
2024/01/15 09:49:24;;;;;;;4.40;3.07;;;;;;;;;;6196036;23;20396;-93
2024/01/15 09:51:50;;;;;;;6.40;3.50;;;;;;;;;;6172594;23;20380;-92
2024/01/15 09:54:19;;;;;;;4.80;2.77;;;;;;;;;;6168769;23;20467;-94
2024/01/15 09:56:49;;;;;;;3.43;2.67;;;;;;;;;;6168307;23;20388;-92
2024/01/15 09:59:16;;;;;;;4.50;3.30;;;;;;;;;;6167096;23;20534;-91
2024/01/15 10:01:43;;;;;;;6.07;4.00;;;;;;;;;;6169823;23;20400;-93
2024/01/15 10:04:09;;;;;;;5.63;2.40;;;;;;;;;;6170174;23;20368;-92
2024/01/15 10:06:35;;;;;;;6.27;3.07;;;;;;;;;;6172470;23;20384;-95
2024/01/15 10:09:03;;;;;;;5.93;3.43;;;;;;;;;;6169187;23;20388;-93
2024/01/15 10:11:29;;;;;;;6.93;2.93;;;;;;;;;;6170191;23;20384;-94
2024/01/15 10:13:57;;;;;;;4.97;2.20;;;;;;;;;;6167811;23;20380;-94
2024/01/15 10:16:23;;;;;;;3.13;2.83;;;;;;;;;;6192959;23;20864;-93
2024/01/15 10:18:50;;;;;;;2.40;2.13;;;;;;;;;;6168359;23;20384;-94
2024/01/15 10:21:16;;;;;;;4.20;1.90;;;;;;;;;;6170334;23;20404;-92
2024/01/15 10:23:42;;;;;;;2.20;2.00;;;;;;;;;;6168964;23;20686;-93
2024/01/15 10:26:11;;;;;;;2.80;2.20;;;;;;;;;;6168856;23;20474;-93
2024/01/15 10:28:38;;;;;;;5.60;2.53;;;;;;;;;;6191935;23;20917;-93
2024/01/15 10:31:04;;;;;;;7.47;3.33;;;;;;;;;;6168813;23;20378;-94
2024/01/15 10:33:30;;;;;;;4.90;2.80;;;;;;;;;;6166580;23;20728;-96
2024/01/15 10:35:57;;;;;;;4.57;3.63;;;;;;;;;;6168328;23;20392;-94
2024/01/15 10:38:23;;;;;;;5.30;3.17;;;;;;;;;;6168210;23;20481;-94
2024/01/15 10:40:53;;;;;;;3.37;3.03;;;;;;;;;;6171486;23;20499;-93
2024/01/15 10:43:19;;;;;;;4.63;2.60;;;;;;;;;;6164921;23;20426;-90
2024/01/15 10:45:48;;;;;;;3.93;1.97;;;;;;;;;;6166028;23;20767;-91
2024/01/15 10:48:15;;;;;;;6.97;2.80;;;;;;;;;;6164639;23;20391;-92
2024/01/15 10:50:41;;;;;;;3.83;2.20;;;;;;;;;;6163962;23;20407;-90
2024/01/15 10:53:07;;;;;;;6.30;2.40;;;;;;;;;;6163569;23;20402;-93
2024/01/15 10:55:33;;;;;;;6.40;2.37;;;;;;;;;;6162752;23;20423;-90
2024/01/15 10:58:00;;;;;;;2.17;1.97;;;;;;;;;;6163545;23;20391;-90
2024/01/15 11:00:26;;;;;;;2.40;2.20;;;;;;;;;;6164654;23;20459;-90
2024/01/15 11:02:55;;;;;;;2.80;2.40;;;;;;;;;;6165620;23;20395;-91
2024/01/15 11:05:22;;;;;;;3.70;2.03;;;;;;;;;;6164316;23;20384;-89
2024/01/15 11:07:48;;;;;;;2.63;2.23;;;;;;;;;;6169192;23;20384;-90
2024/01/15 11:10:33;;;;;;;3.37;2.17;;;;;;;;;;6163478;23;20380;-88
2024/01/15 11:12:59;;;;;;;3.47;2.43;;;;;;;;;;6168688;23;20867;-89
2024/01/15 11:15:28;;;;;;;3.20;2.07;;;;;;;;;;6165762;23;20360;-91
2024/01/15 11:17:59;;;;;;;2.50;2.30;;;;;;;;;;6167431;23;20395;-89
2024/01/15 11:20:25;;;;;;;3.40;2.90;;;;;;;;;;6164848;23;20499;-91
2024/01/15 11:22:51;;;;;;;3.70;2.83;;;;;;;;;;6166545;23;20383;-90
2024/01/15 11:25:18;;;;;;;3.40;2.33;;;;;;;;;;6167612;23;20451;-89
2024/01/15 11:27:47;;;;;;;5.50;2.20;;;;;;;;;;6168466;23;20380;-89
2024/01/15 11:30:13;;;;;;;4.37;2.53;;;;;;;;;;6165834;23;20415;-89
2024/01/15 11:32:42;;;;;;;6.80;3.20;;;;;;;;;;6164907;23;20380;-91
2024/01/15 11:35:08;;;;;;;5.93;3.00;;;;;;;;;;6168532;23;21222;-90
2024/01/15 11:37:57;;;;;;;9.83;3.37;;;;;;;;;;6168350;23;20356;-91
2024/01/15 11:40:35;;;;;;;6.00;2.83;;;;;;;;;;6166867;23;20427;-90
2024/01/15 11:43:02;;;;;;;9.07;3.70;;;;;;;;;;6191039;23;20370;-90
2024/01/15 11:45:29;;;;;;;3.90;3.60;;;;;;;;;;6166977;23;20387;-90
2024/01/15 11:48:08;;;;;;;5.27;3.67;;;;;;;;;;6168881;23;20364;-89
2024/01/15 11:50:34;;;;;;;4.70;3.30;;;;;;;;;;6165986;23;20422;-90
2024/01/15 11:53:03;;;;;;;3.70;2.40;;;;;;;;;;6167434;23;20380;-90
2024/01/15 11:55:32;;;;;;;4.53;2.33;;;;;;;;;;6165912;23;20398;-89
2024/01/15 11:57:58;;;;;;;7.63;4.00;;;;;;;;;;6166750;23;20432;-92
2024/01/15 12:00:24;;;;;;;2.97;2.40;;;;;;;;;;6166777;23;20961;-91
2024/01/15 12:02:54;;;;;;;3.93;2.80;;;;;;;;;;6170702;23;20419;-92
2024/01/15 12:05:20;;;;;;;4.80;3.40;;;;;;;;;;6169925;23;20400;-93
2024/01/15 12:07:49;;;;;;;3.33;2.80;;;;;;;;;;6166129;23;20494;-91
2024/01/15 12:10:19;;;;;;;3.43;2.27;;;;;;;;;;6170483;23;20383;-91
2024/01/15 12:12:45;;;;;;;6.30;3.43;;;;;;;;;;6197103;23;20388;-90
2024/01/15 12:15:11;;;;;;;8.37;3.50;;;;;;;;;;6169735;23;20917;-90
2024/01/15 12:17:37;;;;;;;3.60;2.73;;;;;;;;;;6196967;23;20379;-91
2024/01/15 12:20:08;;;;;;;3.13;2.87;;;;;;;;;;6195025;23;20422;-90
2024/01/15 12:22:34;;;;;;;6.70;3.30;;;;;;;;;;6169462;23;20789;-91
2024/01/15 12:25:02;;;;;;;10.80;3.57;;;;;;;;;;6168988;23;20418;-91
2024/01/15 12:27:28;;;;;;;4.50;2.70;;;;;;;;;;6168396;23;20396;-91
2024/01/15 12:29:54;;;;;;;6.67;3.10;;;;;;;;;;6168986;23;20431;-91
2024/01/15 12:32:21;;;;;;;7.33;3.20;;;;;;;;;;6169582;23;20390;-91
2024/01/15 12:34:47;;;;;;;4.83;2.70;;;;;;;;;;6171129;23;20388;-89
2024/01/15 12:37:14;;;;;;;5.67;3.67;;;;;;;;;;6173983;23;20395;-90
2024/01/15 12:39:44;;;;;;;6.47;3.03;;;;;;;;;;6171839;23;20420;-90
2024/01/15 12:42:10;;;;;;;4.33;2.50;;;;;;;;;;6170279;23;20376;-90
2024/01/15 12:44:40;;;;;;;2.67;2.47;;;;;;;;;;6167493;23;20883;-90
2024/01/15 12:47:06;;;;;;;7.40;2.17;;;;;;;;;;6130111;23;20384;-91
2024/01/15 12:49:32;;;;;;;4.23;3.27;;;;;;;;;;6120618;23;20404;-89
2024/01/15 12:51:58;;;;;;;3.90;2.63;;;;;;;;;;6135898;23;20376;-90
2024/01/15 12:54:24;;;;;;;2.80;2.50;;;;;;;;;;6138795;23;20424;-90
2024/01/15 12:56:50;;;;;;;3.87;3.50;;;;;;;;;;6135679;23;20467;-91
2024/01/15 12:59:17;;;;;;;4.07;2.50;;;;;;;;;;6133949;23;20429;-89
2024/01/15 13:01:43;;;;;;;5.70;2.90;;;;;;;;;;6134314;23;20475;-89
2024/01/15 13:04:09;;;;;;;4.90;3.60;;;;;;;;;;6135836;23;21138;-89
2024/01/15 13:06:38;;;;;;;2.97;2.67;;;;;;;;;;6134762;23;20872;-90
2024/01/15 13:09:06;;;;;;;5.17;2.63;;;;;;;;;;6137210;23;20381;-91
2024/01/15 13:11:33;;;;;;;5.20;3.23;;;;;;;;;;6136197;23;20381;-91
2024/01/15 13:13:59;;;;;;;4.40;2.77;;;;;;;;;;6136359;23;20476;-90
2024/01/15 13:16:28;;;;;;;3.90;2.27;;;;;;;;;;6134522;23;20391;-90
2024/01/15 13:18:54;;;;;;;3.93;2.83;;;;;;;;;;6180886;23;20376;-90
2024/01/15 13:21:20;;;;;;;3.87;2.83;;;;;;;;;;6214454;23;20364;-89
2024/01/15 13:23:49;;;;;;;9.80;4.40;;;;;;;;;;6191062;23;20434;-89
2024/01/15 13:26:15;;;;;;;3.50;2.40;;;;;;;;;;6195370;23;20372;-91
2024/01/15 13:28:41;;;;;;;2.83;2.43;;;;;;;;;;6191114;23;20372;-90
2024/01/15 13:31:08;;;;;;;4.67;2.63;;;;;;;;;;6190643;23;20379;-90
2024/01/15 13:33:34;;;;;;;4.17;2.40;;;;;;;;;;6190910;23;20372;-90
2024/01/15 13:36:00;;;;;;;3.33;2.47;;;;;;;;;;6189139;23;20848;-90
2024/01/15 13:38:27;;;;;;;3.27;2.73;;;;;;;;;;6190071;23;20389;-90
2024/01/15 13:40:55;;;;;;;4.80;2.13;;;;;;;;;;6191125;23;20408;-90
2024/01/15 13:43:21;;;;;;;2.47;1.90;;;;;;;;;;6193687;23;20380;-89
2024/01/15 13:45:47;;;;;;;2.93;2.50;;;;;;;;;;6190296;23;20380;-90
2024/01/15 13:48:13;;;;;;;3.33;2.77;;;;;;;;;;6214316;23;20364;-89
2024/01/15 13:50:39;;;;;;;4.10;2.57;;;;;;;;;;6192183;23;20403;-89
2024/01/15 13:53:05;;;;;;;4.00;3.20;;;;;;;;;;6190493;23;20463;-90
2024/01/15 13:55:31;;;;;;;2.53;2.33;;;;;;;;;;6196182;23;20372;-87
2024/01/15 13:57:57;;;;;;;2.80;2.20;;;;;;;;;;6190119;23;20519;-89
2024/01/15 14:00:23;;;;;;;3.93;2.03;;;;;;;;;;6193452;23;20479;-89
2024/01/15 14:02:49;;;;;;;7.60;3.30;;;;;;;;;;6190134;23;20380;-90
2024/01/15 14:05:16;;;;;;;2.77;2.10;;;;;;;;;;6190408;23;20368;-90
2024/01/15 14:07:43;;;;;;;5.03;2.60;;;;;;;;;;6188243;23;20415;-90
2024/01/15 14:10:09;;;;;;;2.43;2.23;;;;;;;;;;6192864;23;20387;-90
2024/01/15 14:12:36;;;;;;;7.00;2.13;;;;;;;;;;6194621;23;20388;-90
2024/01/15 14:15:02;;;;;;;3.93;2.93;;;;;;;;;;6190855;23;20382;-89
2024/01/15 14:17:28;;;;;;;3.23;2.03;;;;;;;;;;6216647;23;20380;-89
2024/01/15 14:19:54;;;;;;;4.17;2.97;;;;;;;;;;6190494;23;20440;-89
2024/01/15 14:22:20;;;;;;;3.47;2.93;;;;;;;;;;6194124;23;20456;-90
2024/01/15 14:24:46;;;;;;;2.27;2.07;;;;;;;;;;6189700;23;20388;-89
2024/01/15 14:27:12;;;;;;;2.83;2.27;;;;;;;;;;6191109;23;20380;-89
2024/01/15 14:29:38;;;;;;;2.13;1.47;;;;;;;;;;6191690;23;20481;-90
2024/01/15 14:32:04;;;;;;;2.60;1.73;;;;;;;;;;6189675;23;20380;-90
2024/01/15 14:34:31;;;;;;;2.70;1.93;;;;;;;;;;6191468;23;20395;-90
2024/01/15 14:36:57;;;;;;;2.37;2.17;;;;;;;;;;6189431;23;20384;-90
2024/01/15 14:39:23;;;;;;;2.70;2.20;;;;;;;;;;6191148;23;20425;-89
2024/01/15 14:41:49;;;;;;;3.63;2.40;;;;;;;;;;6190942;23;20920;-90